ADDS METAR Data INFO
IDs: Format: Raw Decoded Include TAF

Data at: 0350 UTC 18 Oct 2017

KMEI 180258Z AUTO 00000KT 10SM CLR 12/11 A3023 RMK AO2 SLP235 T01170106 51013
KMEI 180158Z 00000KT 10SM CLR 12/11 A3022 RMK AO2 SLP233 T01220111
KMEI 180058Z 00000KT 10SM CLR 13/12 A3021 RMK AO2 SLP229 T01330117
KMEI 172358Z 09003KT 10SM CLR 18/09 A3019 RMK AO2 SLP222 T01830094 10244 20183 53001
KMEI 172258Z 08007KT 10SM CLR 22/08 A3019 RMK AO2 SLP221 T02170083
KMEI 172158Z 06008KT 10SM CLR 23/08 A3018 RMK AO2 SLP219 T02330078
KMEI 172058Z 03005KT 10SM CLR 24/09 A3019 RMK AO2 SLP222 T02390089 56019
KMEI 171958Z 02009KT 10SM CLR 24/09 A3019 RMK AO2 SLP222 T02390094
KMEI 171858Z 01010KT 10SM CLR 23/11 A3021 RMK AO2 SLP229 T02330106
KMEI 171758Z 05007KT 010V080 10SM CLR 22/10 A3025 RMK AO2 SLP240 T02220100 10222 20100 58014
KMEI 171658Z 04009KT 10SM CLR 21/09 A3027 RMK AO2 SLP250 T02110094
KMEI 171558Z 11009KT 10SM CLR 19/09 A3028 RMK AO2 SLP252 T01940094
KMEI 171458Z 08008G17KT 10SM CLR 17/08 A3029 RMK AO2 SLP254 T01670083 50011
KMEI 171358Z 05007KT 10SM CLR 14/09 A3029 RMK AO2 SLP255 T01390089
KMEI 171258Z 03008KT 10SM CLR 12/08 A3028 RMK AO2 SLP251 T01170083
KMEI 171158Z 03006KT 10SM CLR 11/08 A3026 RMK AO2 SLP244 T01060078 10122 20094 53016
KMEI 171058Z 04007KT 10SM CLR 11/08 A3024 RMK AO2 SLP237 T01060078
KMEI 170958Z AUTO 00000KT 10SM CLR 09/08 A3022 RMK AO2 SLP232 T00940078
KMEI 170858Z AUTO 34006KT 10SM CLR 09/08 A3021 RMK AO2 SLP227 T00940078 58004
KMEI 170758Z AUTO 05006KT 10SM CLR 11/08 A3021 RMK AO2 SLP229 T01110078
KMEI 170658Z AUTO 04007KT 10SM CLR 12/08 A3022 RMK AO2 SLP230 T01170083
KMEI 170558Z AUTO 33004KT 10SM CLR 11/08 A3022 RMK AO2 SLP231 T01060083 10161 20106 402280106 58004
KMEI 170458Z AUTO 35005KT 10SM CLR 12/09 A3023 RMK AO2 SLP234 T01170089
KMEI 170358Z AUTO 35008KT 10SM CLR 13/09 A3023 RMK AO2 SLP235 T01280089
KMEI 170258Z AUTO 36008KT 10SM CLR 13/09 A3023 RMK AO2 SLP234 T01330089 51017
KMEI 170158Z AUTO 36008KT 10SM CLR 14/09 A3022 RMK AO2 SLP231 T01390089
KMEI 170058Z AUTO 36008KT 10SM CLR 14/09 A3021 RMK AO2 SLP227 T01440094
KMEI 162358Z AUTO 36006KT 10SM CLR 16/09 A3018 RMK AO2 SLP218 T01610094 10228 20161 53015
KMEI 162258Z AUTO 36008KT 10SM CLR 19/09 A3016 RMK AO2 SLP212 T01940089
KMEI 162158Z AUTO 36013KT 10SM CLR 21/08 A3014 RMK AO2 SLP205 T02110083
KMEI 162058Z 36011G18KT 10SM CLR 23/09 A3014 RMK AO2 SLP202 T02280089 56020
KMEI 161958Z 35015KT 10SM CLR 22/08 A3014 RMK AO2 SLP205 T02220083
KMEI 161858Z 36016G20KT 10SM CLR 22/09 A3016 RMK AO2 SLP211 T02220089
KMEI 161758Z 01014KT 10SM CLR 21/08 A3019 RMK AO2 SLP222 T02110083 10211 20117 58018
KMEI 161658Z 36015KT 10SM CLR 19/08 A3022 RMK AO2 SLP232 T01940083
KMEI 161558Z 36010KT 10SM CLR 18/09 A3024 RMK AO2 SLP237 T01830094